Time;durP1;ratioP1;P1;durP2;ratioP2;P2;SDS_P1;SDS_P2;PMS_P1;PMS_P2;Temp;Humidity;BMP_temperature;BMP_pressure;BME280_temperature;BME280_humidity;BME280_pressure;Samples;Min_cycle;Max_cycle;Signal;HPM_P1;HPM_P2
2024/01/22 00:01:05;;;;;;;;;150.50;135.50;;;;;-0.58;50.42;101250.38;4852098;29;11891;-81
2024/01/22 00:03:46;;;;;;;;;114.00;98.00;;;;;-0.52;50.39;101240.34;4840231;29;11781;-82
2024/01/22 00:06:15;;;;;;;;;124.75;113.50;;;;;-0.55;50.90;101239.28;4839308;29;11743;-81
2024/01/22 00:08:44;;;;;;;;;125.75;118.25;;;;;-0.63;49.42;101241.47;4839346;29;11822;-80
2024/01/22 00:11:13;;;;;;;;;133.00;116.25;;;;;-0.71;49.09;101255.66;4831147;29;11792;-80
2024/01/22 00:13:42;;;;;;;;;119.00;104.25;;;;;-0.83;48.98;101260.19;4824164;29;11727;-81
2024/01/22 00:16:12;;;;;;;;;116.75;106.00;;;;;-0.82;49.87;101268.03;4832358;29;11379;-79
2024/01/22 00:18:41;;;;;;;;;120.75;111.25;;;;;-0.80;49.94;101266.41;4836688;29;11743;-79
2024/01/22 00:21:12;;;;;;;;;149.50;129.75;;;;;-0.73;50.72;101265.94;4839654;29;12498;-80
2024/01/22 00:23:41;;;;;;;;;133.50;121.50;;;;;-0.74;50.66;101268.44;4838723;29;11784;-82
2024/01/22 00:26:12;;;;;;;;;114.75;95.75;;;;;-0.72;50.55;101261.66;4866860;29;11716;-80
2024/01/22 00:28:41;;;;;;;;;118.00;108.75;;;;;-0.77;50.53;101263.09;4871066;29;10898;-81
2024/01/22 00:31:10;;;;;;;;;128.00;111.25;;;;;-0.80;49.52;101265.53;4860190;29;11841;-78
2024/01/22 00:33:39;;;;;;;;;95.00;75.25;;;;;-0.93;49.72;101274.31;4857614;29;11687;-79
2024/01/22 00:36:09;;;;;;;;;98.50;77.50;;;;;-0.98;49.69;101263.72;4824032;29;10051;-80
2024/01/22 00:38:42;;;;;;;;;119.25;104.75;;;;;-0.99;50.81;101261.97;4822293;29;10220;-79
2024/01/22 00:41:11;;;;;;;;;113.75;103.50;;;;;-1.17;49.77;101264.44;4849396;29;11753;-82
2024/01/22 00:43:40;;;;;;;;;119.00;107.25;;;;;-1.04;50.05;101255.66;4825138;29;11488;-82
2024/01/22 00:46:08;;;;;;;;;111.75;98.00;;;;;-1.05;50.72;101253.91;4818841;29;11211;-82
2024/01/22 00:48:38;;;;;;;;;106.75;87.25;;;;;-0.99;50.28;101246.47;4819063;29;11175;-79
2024/01/22 00:51:07;;;;;;;;;102.75;80.25;;;;;-0.97;50.64;101252.63;4801701;29;11102;-83
2024/01/22 00:53:36;;;;;;;;;104.50;81.75;;;;;-0.94;50.08;101252.78;4800128;29;10521;-82
2024/01/22 00:56:07;;;;;;;;;99.00;77.25;;;;;-0.89;50.10;101247.84;4785561;29;10680;-83
2024/01/22 00:58:39;;;;;;;;;94.25;74.75;;;;;-0.87;50.91;101247.94;4785993;29;10645;-80
2024/01/22 01:01:08;;;;;;;;;97.25;76.50;;;;;-0.86;51.37;101249.69;4802854;29;10079;-81
2024/01/22 01:03:37;;;;;;;;;80.67;66.00;;;;;-0.84;50.74;101243.84;4789631;29;9717;-79
2024/01/22 01:06:06;;;;;;;;;72.25;58.50;;;;;-0.81;50.72;101236.22;4804218;29;9844;-81
2024/01/22 01:08:35;;;;;;;;;70.25;57.00;;;;;-0.79;51.28;101233.72;4806475;29;8902;-80
2024/01/22 01:11:06;;;;;;;;;70.75;58.00;;;;;-0.83;50.80;101231.81;4816649;29;8879;-82
2024/01/22 01:13:35;;;;;;;;;75.50;58.50;;;;;-0.89;51.03;101229.78;4800458;29;8916;-80
2024/01/22 01:16:04;;;;;;;;;62.00;52.50;;;;;-0.87;50.79;101229.88;4785029;29;8917;-78
2024/01/22 01:18:33;;;;;;;;;73.00;59.50;;;;;-0.90;51.21;101226.31;4820193;29;8924;-79
2024/01/22 01:21:02;;;;;;;;;65.00;52.75;;;;;-0.90;51.53;101223.75;4822360;29;8922;-79
2024/01/22 01:23:31;;;;;;;;;61.75;48.75;;;;;-0.99;50.54;101220.66;4846488;29;9088;-78
2024/01/22 01:26:01;;;;;;;;;66.50;53.50;;;;;-1.05;50.69;101216.88;4845464;29;8913;-79
2024/01/22 01:28:31;;;;;;;;;56.75;48.25;;;;;-1.06;51.03;101207.38;4833506;29;8873;-79
2024/01/22 01:31:00;;;;;;;;;47.25;42.25;;;;;-1.11;51.03;101210.59;4822303;29;8912;-80
2024/01/22 01:33:29;;;;;;;;;40.50;36.50;;;;;-1.22;50.83;101208.22;4818618;29;8907;-80
2024/01/22 01:35:58;;;;;;;;;44.50;42.25;;;;;-1.16;50.82;101213.72;4835786;29;8925;-78
2024/01/22 01:38:27;;;;;;;;;41.25;39.50;;;;;-1.25;50.84;101211.53;4835464;29;8876;-79
2024/01/22 01:40:56;;;;;;;;;32.25;29.75;;;;;-1.31;50.78;101206.94;4821575;29;8947;-80
2024/01/22 01:43:25;;;;;;;;;38.25;31.00;;;;;-1.31;50.46;101213.78;4832514;29;8911;-80
2024/01/22 01:45:55;;;;;;;;;37.50;34.50;;;;;-1.26;51.07;101214.03;4835666;29;8974;-83
2024/01/22 01:48:25;;;;;;;;;42.50;38.25;;;;;-1.19;51.60;101219.59;4822409;29;9087;-80
2024/01/22 01:50:55;;;;;;;;;37.75;35.25;;;;;-1.05;51.59;101230.69;4837255;29;9632;-80
2024/01/22 01:53:27;;;;;;;;;40.00;37.50;;;;;-1.02;50.65;101222.19;4836353;29;8907;-83
2024/01/22 01:55:58;;;;;;;;;49.00;43.00;;;;;-0.94;51.25;101226.06;4836882;29;8883;-79
2024/01/22 01:58:27;;;;;;;;;47.25;45.00;;;;;-0.98;50.61;101225.00;4837061;29;8880;-79
2024/01/22 02:00:59;;;;;;;;;48.00;44.00;;;;;-0.83;51.13;101231.81;4836336;29;8891;-85
2024/01/22 02:03:28;;;;;;;;;53.00;45.25;;;;;-0.82;51.01;101218.97;4833330;29;8982;-79
2024/01/22 02:05:56;;;;;;;;;61.00;48.50;;;;;-0.75;51.45;101222.75;4837343;29;8928;-80
2024/01/22 02:08:25;;;;;;;;;52.50;46.25;;;;;-0.77;51.47;101224.38;4851411;29;9014;-80
2024/01/22 02:10:54;;;;;;;;;41.25;37.75;;;;;-0.81;51.28;101222.44;4861570;29;8926;-81
2024/01/22 02:13:25;;;;;;;;;37.00;37.00;;;;;-0.88;50.61;101217.75;4857979;29;8871;-78
2024/01/22 02:15:54;;;;;;;;;34.50;32.75;;;;;-0.88;50.45;101215.16;4825656;29;8882;-78
2024/01/22 02:18:25;;;;;;;;;28.75;26.25;;;;;-0.88;50.33;101217.75;4855667;29;8891;-79
2024/01/22 02:20:54;;;;;;;;;40.75;38.75;;;;;-0.85;50.41;101223.09;4840080;29;8873;-79
2024/01/22 02:23:24;;;;;;;;;34.50;32.00;;;;;-0.78;50.88;101223.50;4855547;29;8900;-79
2024/01/22 02:25:53;;;;;;;;;41.50;38.50;;;;;-0.85;50.41;101218.81;4854363;29;8884;-80
2024/01/22 02:28:22;;;;;;;;;39.75;37.00;;;;;-0.81;50.59;101207.81;4836961;29;9725;-80
2024/01/22 02:30:51;;;;;;;;;47.50;42.50;;;;;-0.81;51.38;101210.41;4840321;29;8881;-78
2024/01/22 02:33:20;;;;;;;;;45.00;35.75;;;;;-0.83;50.63;101205.97;4855317;29;8877;-81
2024/01/22 02:35:49;;;;;;;;;43.25;40.50;;;;;-0.80;50.73;101196.69;4840345;29;8889;-80
2024/01/22 02:38:18;;;;;;;;;36.00;36.00;;;;;-0.77;49.93;101193.38;4855399;29;8881;-85
2024/01/22 02:40:48;;;;;;;;;32.00;28.50;;;;;-0.83;49.78;101187.91;4840277;29;8925;-81
2024/01/22 02:43:17;;;;;;;;;35.00;31.75;;;;;-0.88;49.55;101195.44;4836182;29;8873;-82
2024/01/22 02:45:47;;;;;;;;;36.50;34.00;;;;;-1.03;49.20;101187.78;4829315;29;9008;-78
2024/01/22 02:48:16;;;;;;;;;31.50;30.25;;;;;-1.02;49.06;101184.38;4836742;29;8907;-80
2024/01/22 02:50:45;;;;;;;;;34.00;31.75;;;;;-1.13;49.42;101181.22;4840070;29;8887;-80
2024/01/22 02:53:14;;;;;;;;;38.75;35.00;;;;;-1.23;49.60;101171.22;4856591;29;8896;-78
2024/01/22 02:55:43;;;;;;;;;38.00;37.00;;;;;-1.19;49.87;101167.13;4864142;29;8896;-81
2024/01/22 02:58:14;;;;;;;;;35.00;33.50;;;;;-1.17;50.01;101174.13;4846569;29;8913;-82
2024/01/22 03:00:42;;;;;;;;;36.75;34.00;;;;;-1.15;49.98;101172.50;4853779;29;8909;-80
2024/01/22 03:03:12;;;;;;;;;46.50;38.50;;;;;-1.06;50.34;101174.69;4840779;29;8867;-79
2024/01/22 03:05:41;;;;;;;;;47.50;39.75;;;;;-1.07;50.12;101161.69;4854125;29;8987;-79
2024/01/22 03:08:11;;;;;;;;;42.25;40.75;;;;;-1.11;50.30;101156.41;4841031;29;8863;-81
2024/01/22 03:10:39;;;;;;;;;44.00;42.25;;;;;-1.07;50.88;101149.69;4852675;29;8892;-80
2024/01/22 03:13:08;;;;;;;;;42.75;38.75;;;;;-1.05;50.11;101155.84;4878353;29;8896;-80
2024/01/22 03:15:39;;;;;;;;;43.25;39.00;;;;;-1.11;50.01;101164.13;4845367;29;8907;-79
2024/01/22 03:18:08;;;;;;;;;49.00;44.25;;;;;-1.05;50.69;101150.66;4851168;29;8875;-81
2024/01/22 03:20:37;;;;;;;;;42.50;42.50;;;;;-1.21;49.84;101148.97;4833599;29;8887;-79
2024/01/22 03:23:06;;;;;;;;;39.75;37.50;;;;;-1.09;51.00;101140.97;4854938;29;8888;-78
2024/01/22 03:25:35;;;;;;;;;48.75;40.25;;;;;-1.22;50.79;101146.28;4854748;29;8876;-79
2024/01/22 03:28:05;;;;;;;;;42.25;41.25;;;;;-1.27;50.87;101148.66;4845941;29;8855;-79
2024/01/22 03:30:34;;;;;;;;;44.25;42.75;;;;;-1.23;50.92;101147.13;4852138;29;9030;-79
2024/01/22 03:33:05;;;;;;;;;47.00;40.00;;;;;-1.22;50.91;101152.38;4839988;29;8946;-79
2024/01/22 03:35:34;;;;;;;;;42.25;41.00;;;;;-1.15;50.47;101144.13;4806652;29;8891;-80
2024/01/22 03:38:03;;;;;;;;;44.25;38.75;;;;;-1.10;51.23;101136.63;4834511;29;8881;-79
2024/01/22 03:40:31;;;;;;;;;38.50;38.50;;;;;-1.00;51.20;101141.44;4838013;29;8889;-80
2024/01/22 03:43:01;;;;;;;;;40.75;35.75;;;;;-1.15;50.37;101132.91;4843956;29;8969;-80
2024/01/22 03:45:29;;;;;;;;;43.75;41.00;;;;;-1.16;50.90;101134.63;4840584;29;8961;-78
2024/01/22 03:47:58;;;;;;;;;43.50;40.50;;;;;-1.24;50.72;101135.88;4856104;29;8985;-79
2024/01/22 03:50:29;;;;;;;;;44.75;41.50;;;;;-1.36;50.21;101143.88;4856228;29;9094;-80
2024/01/22 03:52:58;;;;;;;;;42.25;40.50;;;;;-1.33;50.36;101151.78;4812700;29;8923;-80
2024/01/22 03:55:27;;;;;;;;;46.00;39.50;;;;;-1.35;50.72;101150.81;4800751;29;9050;-81
2024/01/22 03:57:56;;;;;;;;;51.00;42.00;;;;;-1.39;50.41;101142.81;4801299;29;8914;-79
2024/01/22 04:00:25;;;;;;;;;51.00;46.00;;;;;-1.43;49.93;101158.94;4786234;29;9649;-78
2024/01/22 04:02:54;;;;;;;;;46.00;39.00;;;;;-1.25;50.44;101157.34;4785967;29;8922;-80
2024/01/22 04:05:23;;;;;;;;;49.00;43.75;;;;;-1.14;50.16;101153.66;4803061;29;8883;-79
2024/01/22 04:07:53;;;;;;;;;42.75;35.50;;;;;-1.06;50.57;101148.88;4823097;29;9681;-78
2024/01/22 04:10:23;;;;;;;;;39.00;35.25;;;;;-1.10;50.26;101142.66;4812861;29;8879;-79
2024/01/22 04:12:52;;;;;;;;;44.75;43.00;;;;;-1.16;50.21;101141.47;4779132;29;9002;-79
2024/01/22 04:15:20;;;;;;;;;46.50;39.00;;;;;-1.21;49.74;101141.22;4800941;29;9139;-79
2024/01/22 04:17:50;;;;;;;;;47.75;42.50;;;;;-1.21;50.32;101123.16;4825752;29;8868;-80
2024/01/22 04:20:19;;;;;;;;;45.00;37.00;;;;;-1.40;50.76;101126.47;4825558;29;8934;-78
2024/01/22 04:22:48;;;;;;;;;50.75;45.25;;;;;-1.47;50.37;101118.31;4817364;29;8932;-79
2024/01/22 04:25:18;;;;;;;;;51.25;43.25;;;;;-1.46;50.42;101108.09;4804028;29;8893;-79
2024/01/22 04:27:47;;;;;;;;;36.75;36.00;;;;;-1.52;50.76;101112.94;4836305;29;8878;-77
2024/01/22 04:30:16;;;;;;;;;55.00;43.25;;;;;-1.52;50.42;101118.97;4820530;29;9000;-79
2024/01/22 04:32:45;;;;;;;;;37.25;36.25;;;;;-1.48;50.22;101117.44;4841363;29;8884;-78
2024/01/22 04:35:14;;;;;;;;;42.25;33.75;;;;;-1.53;49.77;101119.75;4853594;29;8884;-78
2024/01/22 04:37:43;;;;;;;;;44.00;38.50;;;;;-1.54;49.90;101112.84;4859342;29;8880;-78
2024/01/22 04:40:14;;;;;;;;;51.50;41.50;;;;;-1.62;49.98;101108.06;4863156;29;9018;-81
2024/01/22 04:42:45;;;;;;;;;40.25;39.25;;;;;-1.64;50.08;101105.41;4858034;29;8885;-79
2024/01/22 04:45:14;;;;;;;;;49.75;45.00;;;;;-1.62;49.54;101110.66;4852182;29;8893;-81
2024/01/22 04:47:43;;;;;;;;;46.25;40.00;;;;;-1.73;50.06;101117.81;4864071;29;8877;-82
2024/01/22 04:50:13;;;;;;;;;47.25;42.25;;;;;-1.68;49.63;101118.94;4819564;29;8906;-79
2024/01/22 04:52:42;;;;;;;;;41.25;38.00;;;;;-1.62;49.98;101108.94;4819675;29;8937;-80
2024/01/22 04:55:11;;;;;;;;;40.00;38.25;;;;;-1.64;50.08;101107.09;4819678;29;9729;-78
2024/01/22 04:57:50;;;;;;;;;38.00;36.25;;;;;-1.58;49.50;101110.00;4791914;29;9057;-82
2024/01/22 05:00:19;;;;;;;;;43.75;41.75;;;;;-1.63;50.04;101102.03;4819759;29;8910;-82
2024/01/22 05:02:48;;;;;;;;;46.50;41.50;;;;;-1.62;49.96;101103.78;4820060;29;8899;-79
2024/01/22 05:05:20;;;;;;;;;54.00;47.50;;;;;-1.74;50.18;101103.16;4802897;29;8899;-79
2024/01/22 05:07:49;;;;;;;;;41.75;40.75;;;;;-1.76;50.37;101092.75;4825882;29;8871;-79
2024/01/22 05:10:18;;;;;;;;;37.50;37.00;;;;;-1.79;50.43;101104.59;4799162;29;8872;-80
2024/01/22 05:12:47;;;;;;;;;71.00;58.00;;;;;-1.72;51.03;101097.25;4837160;29;8896;-79
2024/01/22 05:15:17;;;;;;;;;62.75;51.75;;;;;-1.65;50.65;101102.78;4836488;29;8920;-81
2024/01/22 05:17:46;;;;;;;;;54.75;47.00;;;;;-1.60;50.50;101099.59;4857322;29;8891;-79
2024/01/22 05:20:15;;;;;;;;;50.25;45.75;;;;;-1.61;50.97;101107.28;4855921;29;8865;-80
2024/01/22 05:22:48;;;;;;;;;54.00;46.00;;;;;-1.61;50.73;101095.28;4820106;29;8907;-79
2024/01/22 05:25:16;;;;;;;;;54.25;45.00;;;;;-1.58;51.00;101100.59;4837671;29;8891;-79
2024/01/22 05:27:47;;;;;;;;;60.00;49.25;;;;;-1.58;50.28;101091.97;4818185;29;8876;-80
2024/01/22 05:30:17;;;;;;;;;67.75;53.75;;;;;-1.53;50.71;101095.69;4819312;29;8875;-79
2024/01/22 05:32:46;;;;;;;;;73.75;58.00;;;;;-1.54;50.61;101091.31;4820047;29;9026;-80
2024/01/22 05:35:19;;;;;;;;;59.75;49.25;;;;;-1.81;51.21;101091.59;4834711;29;8887;-79
2024/01/22 05:37:50;;;;;;;;;59.75;50.50;;;;;-1.68;51.10;101088.00;4823439;29;8902;-80
2024/01/22 05:40:19;;;;;;;;;54.00;48.50;;;;;-1.63;51.21;101081.41;4802899;29;8913;-81
2024/01/22 05:42:48;;;;;;;;;66.50;52.75;;;;;-1.69;51.00;101075.94;4818254;29;8945;-79
2024/01/22 05:45:18;;;;;;;;;83.25;64.75;;;;;-1.70;50.72;101075.03;4818456;29;8907;-79
2024/01/22 05:47:48;;;;;;;;;65.75;54.00;;;;;-1.77;50.50;101080.69;4802707;29;8918;-81
2024/01/22 05:50:17;;;;;;;;;70.00;57.25;;;;;-1.59;51.13;101072.16;4800616;29;8929;-80
2024/01/22 05:52:46;;;;;;;;;49.75;37.75;;;;;-1.68;50.99;101070.84;4810358;29;8911;-80
2024/01/22 05:55:15;;;;;;;;;61.25;52.75;;;;;-1.96;50.80;101067.59;4822666;29;8903;-80
2024/01/22 05:57:48;;;;;;;;;55.50;45.75;;;;;-1.93;50.68;101075.50;4818121;29;8914;-81
2024/01/22 06:00:18;;;;;;;;;63.25;48.50;;;;;-1.88;51.07;101068.91;4804607;29;8905;-80
2024/01/22 06:02:48;;;;;;;;;78.50;63.25;;;;;-1.91;51.49;101069.59;4834121;29;8995;-79
2024/01/22 06:05:18;;;;;;;;;72.75;56.75;;;;;-1.92;51.52;101064.38;4837357;29;8879;-80
2024/01/22 06:07:48;;;;;;;;;73.00;58.00;;;;;-2.12;51.35;101069.31;4818534;29;8887;-80
2024/01/22 06:10:17;;;;;;;;;65.00;50.75;;;;;-2.15;51.44;101076.00;4800633;29;8949;-82
2024/01/22 06:12:47;;;;;;;;;59.75;49.75;;;;;-2.09;51.39;101059.19;4818988;29;8883;-83
2024/01/22 06:15:18;;;;;;;;;48.25;42.50;;;;;-2.21;51.61;101057.63;4804065;29;8938;-81
2024/01/22 06:17:49;;;;;;;;;52.00;46.50;;;;;-2.02;51.63;101055.25;4789550;29;8863;-81
2024/01/22 06:20:18;;;;;;;;;66.00;52.00;;;;;-2.26;51.87;101057.38;4803177;29;8922;-80
2024/01/22 06:22:48;;;;;;;;;53.00;47.50;;;;;-2.04;51.49;101061.13;4803300;29;8923;-80
2024/01/22 06:25:17;;;;;;;;;62.50;49.75;;;;;-1.94;51.69;101055.66;4809312;29;8897;-78
2024/01/22 06:27:47;;;;;;;;;64.25;51.00;;;;;-1.97;51.84;101064.13;4813132;29;8915;-80
2024/01/22 06:30:18;;;;;;;;;55.25;48.25;;;;;-1.78;51.70;101072.88;4779156;29;8899;-81
2024/01/22 06:32:47;;;;;;;;;56.00;49.75;;;;;-1.78;50.75;101071.16;4758616;29;8996;-81
2024/01/22 06:35:16;;;;;;;;;69.00;56.75;;;;;-1.68;50.48;101081.16;4771289;29;8912;-81
2024/01/22 06:37:46;;;;;;;;;61.25;51.50;;;;;-1.56;50.32;101091.25;4770976;29;8864;-81
2024/01/22 06:40:16;;;;;;;;;61.75;52.75;;;;;-1.53;50.12;101099.13;4807590;29;8891;-82
2024/01/22 06:42:45;;;;;;;;;64.25;53.75;;;;;-1.48;49.83;101101.97;4783501;29;8979;-81
2024/01/22 06:45:14;;;;;;;;;72.50;58.75;;;;;-1.46;49.80;101102.94;4813157;29;9018;-81
2024/01/22 06:47:45;;;;;;;;;70.25;55.50;;;;;-1.33;49.92;101100.19;4822314;29;8891;-79
2024/01/22 06:50:14;;;;;;;;;87.00;69.00;;;;;-1.25;50.08;101103.16;4816391;29;8911;-80
2024/01/22 06:52:43;;;;;;;;;76.00;61.50;;;;;-1.21;49.30;101097.34;4790728;29;8888;-81
2024/01/22 06:55:13;;;;;;;;;80.75;65.00;;;;;-1.16;49.39;101098.50;4771022;29;8906;-82
2024/01/22 06:57:42;;;;;;;;;75.75;60.75;;;;;-1.21;49.41;101096.47;4804757;29;8894;-83
2024/01/22 07:00:12;;;;;;;;;74.50;62.25;;;;;-1.20;49.31;101095.66;4786960;29;8896;-82
2024/01/22 07:02:43;;;;;;;;;65.50;52.50;;;;;-1.24;48.52;101098.88;4785514;29;8924;-81
2024/01/22 07:05:12;;;;;;;;;68.50;55.75;;;;;-1.22;49.23;101086.94;4786660;29;8936;-83
2024/01/22 07:07:42;;;;;;;;;70.00;58.00;;;;;-1.25;48.90;101094.56;4762041;29;9663;-79
2024/01/22 07:10:11;;;;;;;;;75.00;62.00;;;;;-1.06;49.36;101083.50;4802330;29;8876;-80
2024/01/22 07:12:41;;;;;;;;;70.75;57.25;;;;;-1.04;48.61;101095.66;4806888;29;8976;-80
2024/01/22 07:15:12;;;;;;;;;77.25;60.75;;;;;-0.79;49.04;101095.19;4823271;29;8887;-79
2024/01/22 07:17:44;;;;;;;;;67.00;54.75;;;;;-0.74;48.46;101095.44;4815443;29;9649;-83
2024/01/22 07:20:16;;;;;;;;;72.75;59.00;;;;;-0.95;48.05;101101.28;4806962;29;9646;-81
2024/01/22 07:22:46;;;;;;;;;77.75;60.75;;;;;-0.88;48.40;101097.34;4833260;29;8893;-81
2024/01/22 07:25:17;;;;;;;;;67.75;55.25;;;;;-0.94;48.27;101092.75;4824276;29;8931;-81
2024/01/22 07:27:47;;;;;;;;;74.75;59.75;;;;;-1.16;48.57;101095.91;4823812;29;8904;-78
2024/01/22 07:30:16;;;;;;;;;68.00;57.00;;;;;-1.28;49.16;101090.09;4810023;29;8876;-82
2024/01/22 07:32:47;;;;;;;;;65.75;56.75;;;;;-0.97;49.13;101094.28;4806608;29;8879;-80
2024/01/22 07:35:18;;;;;;;;;38.50;34.50;;;;;-0.94;49.00;101102.16;4791848;29;8979;-81
2024/01/22 07:37:48;;;;;;;;;70.25;59.00;;;;;-0.97;48.57;101102.91;4839569;29;8889;-78
2024/01/22 07:40:18;;;;;;;;;72.00;57.75;;;;;-1.07;48.20;101105.81;4839688;29;8908;-82
2024/01/22 07:42:49;;;;;;;;;70.75;57.25;;;;;-1.12;48.71;101110.75;4808408;29;8977;-82
2024/01/22 07:45:19;;;;;;;;;70.75;58.25;;;;;-1.27;49.02;101109.94;4820823;29;9631;-80
2024/01/22 07:47:49;;;;;;;;;71.50;57.25;;;;;-1.19;49.21;101112.94;4805693;29;8899;-79
2024/01/22 07:50:20;;;;;;;;;67.25;54.25;;;;;-1.21;49.50;101120.59;4836378;29;9005;-80
2024/01/22 07:52:49;;;;;;;;;70.25;57.75;;;;;-1.13;48.88;101127.00;4793202;29;8885;-81
2024/01/22 07:55:18;;;;;;;;;73.50;58.00;;;;;-1.12;49.33;101115.91;4823478;29;9676;-80
2024/01/22 07:57:48;;;;;;;;;72.50;56.25;;;;;-1.34;49.71;101113.88;4809607;29;9019;-80
2024/01/22 08:00:19;;;;;;;;;73.25;57.00;;;;;-1.38;49.88;101109.38;4850094;29;8861;-79
2024/01/22 08:02:48;;;;;;;;;56.25;47.25;;;;;-1.32;49.61;101104.53;4809811;29;9739;-81
2024/01/22 08:05:18;;;;;;;;;68.00;54.75;;;;;-1.32;49.99;101106.22;4835454;29;9046;-82
2024/01/22 08:07:48;;;;;;;;;72.75;59.00;;;;;-1.31;50.50;101108.03;4848870;29;8963;-80
2024/01/22 08:10:17;;;;;;;;;71.50;58.50;;;;;-1.25;50.33;101094.56;4839983;29;9071;-78
2024/01/22 08:12:46;;;;;;;;;71.50;56.25;;;;;-1.33;49.81;101096.75;4834886;29;8969;-80
2024/01/22 08:15:17;;;;;;;;;75.00;58.75;;;;;-1.05;50.03;101090.41;4830476;29;8880;-82
2024/01/22 08:17:47;;;;;;;;;74.00;55.75;;;;;-0.80;50.30;101085.69;4840167;29;8888;-81
2024/01/22 08:20:18;;;;;;;;;68.00;54.75;;;;;-0.88;49.54;101081.84;4827156;29;8911;-81
2024/01/22 08:22:50;;;;;;;;;75.25;58.00;;;;;-0.68;49.67;101072.50;4866393;29;8889;-81
2024/01/22 08:25:27;;;;;;;;;67.00;56.00;;;;;-0.60;49.34;101073.75;4827360;29;8907;-80
2024/01/22 08:27:56;;;;;;;;;65.25;54.50;;;;;-0.28;49.08;101068.38;4839171;29;8967;-80
2024/01/22 08:30:25;;;;;;;;;76.25;61.50;;;;;-0.32;48.94;101075.97;4840861;29;8894;-79
2024/01/22 08:32:55;;;;;;;;;69.25;54.25;;;;;-0.12;48.26;101058.84;4839371;29;8863;-82
2024/01/22 08:35:24;;;;;;;;;66.25;53.00;;;;;0.10;48.04;101070.16;4851560;29;8866;-84
2024/01/22 08:37:55;;;;;;;;;68.00;53.25;;;;;0.08;48.11;101070.13;4854176;29;8890;-81
2024/01/22 08:40:25;;;;;;;;;69.75;58.00;;;;;-0.21;48.51;101080.78;4817076;29;8878;-81
2024/01/22 08:42:56;;;;;;;;;71.00;56.00;;;;;0.27;48.50;101083.88;4810803;29;8993;-80
2024/01/22 08:45:25;;;;;;;;;66.25;54.00;;;;;0.36;47.15;101080.81;4841388;29;8913;-83
2024/01/22 08:47:54;;;;;;;;;68.50;51.75;;;;;0.38;47.69;101093.00;4856651;29;8882;-80
2024/01/22 08:50:23;;;;;;;;;57.50;49.75;;;;;0.51;47.26;101090.97;4814533;29;8897;-81
2024/01/22 08:52:56;;;;;;;;;64.00;50.50;;;;;0.69;47.58;101094.38;4841638;29;8932;-80
2024/01/22 08:55:25;;;;;;;;;56.00;47.50;;;;;0.92;47.09;101091.94;4847379;29;8936;-82
2024/01/22 08:57:54;;;;;;;;;56.75;48.00;;;;;0.81;46.82;101091.44;4830909;29;8878;-83
2024/01/22 09:00:24;;;;;;;;;64.75;52.50;;;;;0.84;46.98;101097.66;4839329;29;8897;-80
2024/01/22 09:02:54;;;;;;;;;64.25;53.50;;;;;0.98;46.18;101098.28;4826749;29;8897;-80
2024/01/22 09:05:24;;;;;;;;;73.00;53.25;;;;;1.05;46.77;101095.13;4837412;29;8927;-82
2024/01/22 09:07:55;;;;;;;;;70.50;57.75;;;;;0.96;46.18;101104.22;4840172;29;8900;-81
2024/01/22 09:10:27;;;;;;;;;65.75;54.75;;;;;1.11;46.23;101097.09;4831383;29;9026;-80
2024/01/22 09:12:56;;;;;;;;;65.75;53.25;;;;;1.13;46.05;101095.47;4846023;29;8896;-80
2024/01/22 09:15:25;;;;;;;;;67.75;56.25;;;;;0.96;46.09;101081.78;4854584;29;8895;-80
2024/01/22 09:17:54;;;;;;;;;62.25;51.75;;;;;1.21;45.99;101080.22;4840183;29;8956;-81
2024/01/22 09:20:23;;;;;;;;;62.25;50.75;;;;;1.28;45.79;101073.63;4812758;29;9057;-80
2024/01/22 09:22:52;;;;;;;;;59.00;46.50;;;;;1.12;45.51;101080.72;4822109;29;9663;-81
2024/01/22 09:25:22;;;;;;;;;61.25;45.25;;;;;1.12;46.11;101072.94;4822030;29;9012;-80
2024/01/22 09:27:52;;;;;;;;;53.75;46.25;;;;;1.10;45.66;101072.00;4822409;29;8900;-80
2024/01/22 09:30:20;;;;;;;;;61.25;52.00;;;;;1.03;46.62;101044.06;4822126;29;9667;-82
2024/01/22 09:32:52;;;;;;;;;56.50;48.75;;;;;1.15;45.88;101052.38;4821880;29;9692;-81
2024/01/22 09:35:21;;;;;;;;;57.25;47.50;;;;;0.95;45.83;101043.75;4836613;29;8892;-81
2024/01/22 09:37:50;;;;;;;;;51.25;45.25;;;;;0.95;47.01;101048.94;4826571;29;8886;-80
2024/01/22 09:40:18;;;;;;;;;52.25;45.00;;;;;1.04;46.34;101028.59;4804268;29;8895;-82
2024/01/22 09:43:03;;;;;;;;;45.00;39.00;;;;;0.99;46.46;101024.97;4805092;29;10274;-81
2024/01/22 09:45:33;;;;;;;;;49.75;44.75;;;;;0.85;46.36;101029.50;4800243;29;9093;-80
2024/01/22 09:48:03;;;;;;;;;41.75;41.75;;;;;0.90;47.11;101023.63;4801045;29;8909;-80
2024/01/22 09:50:33;;;;;;;;;44.75;43.00;;;;;0.84;46.57;101008.72;4770513;29;9032;-80
2024/01/22 09:53:09;;;;;;;;;47.25;41.75;;;;;0.95;46.58;101001.41;4770749;29;9656;-81
2024/01/22 09:55:42;;;;;;;;;43.50;41.25;;;;;0.83;46.65;100999.22;4809916;29;8949;-81
2024/01/22 09:58:28;;;;;;;;;44.50;42.00;;;;;0.99;46.49;100995.56;4791894;29;8973;-80
2024/01/22 10:00:57;;;;;;;;;45.75;42.00;;;;;0.89;46.42;100988.22;4816254;29;8914;-80
2024/01/22 10:03:30;;;;;;;;;37.25;34.50;;;;;1.03;45.85;100993.19;4796872;29;8917;-83
2024/01/22 10:06:00;;;;;;;;;34.00;33.00;;;;;0.93;45.85;100995.28;4801662;29;9057;-81
2024/01/22 10:08:30;;;;;;;;;44.00;39.75;;;;;0.91;46.37;100990.03;4786079;29;9244;-80
2024/01/22 10:10:59;;;;;;;;;44.25;41.50;;;;;0.80;46.31;100988.72;4800902;29;8906;-81
2024/01/22 10:13:31;;;;;;;;;43.25;40.50;;;;;0.94;46.42;100991.91;4785407;29;9799;-81
2024/01/22 10:16:10;;;;;;;;;42.50;41.75;;;;;1.17;46.33;100995.47;4801273;29;8890;-80
2024/01/22 10:18:40;;;;;;;;;39.50;38.00;;;;;1.36;46.28;100989.31;4799817;29;8890;-80
2024/01/22 10:21:09;;;;;;;;;52.50;45.75;;;;;1.56;46.12;100987.50;4786426;29;8886;-82
2024/01/22 10:23:40;;;;;;;;;47.75;42.50;;;;;1.54;45.65;100984.88;4806928;29;8967;-81
2024/01/22 10:26:11;;;;;;;;;44.50;39.50;;;;;1.64;45.30;100975.72;4797125;29;9007;-83
2024/01/22 10:28:41;;;;;;;;;44.25;42.00;;;;;1.63;45.42;100969.66;4796666;29;8914;-82
2024/01/22 10:31:12;;;;;;;;;42.50;37.50;;;;;1.66;45.28;100952.47;4802350;29;8938;-80
2024/01/22 10:33:42;;;;;;;;;44.25;42.00;;;;;1.69;44.00;100949.97;4811944;29;9162;-81
2024/01/22 10:36:15;;;;;;;;;44.00;41.25;;;;;1.76;44.48;100957.16;4817977;29;8883;-80
2024/01/22 10:38:46;;;;;;;;;39.50;36.25;;;;;1.74;44.98;100940.66;4773750;29;8905;-79
2024/01/22 10:41:20;;;;;;;;;31.00;30.00;;;;;1.68;44.12;100938.72;4807498;29;8915;-82
2024/01/22 10:43:55;;;;;;;;;44.75;39.25;;;;;1.66;45.19;100934.31;4817007;29;8926;-80
2024/01/22 10:46:25;;;;;;;;;39.75;36.75;;;;;1.66;45.22;100935.19;4790549;29;8931;-80
2024/01/22 10:48:58;;;;;;;;;26.25;25.75;;;;;1.74;44.82;100928.56;4796861;29;9025;-82
2024/01/22 10:51:28;;;;;;;;;40.25;38.00;;;;;1.93;45.02;100934.44;4809636;29;8902;-80
2024/01/22 10:53:57;;;;;;;;;48.00;36.50;;;;;2.06;44.47;100921.09;4784406;29;8884;-80
2024/01/22 10:56:32;;;;;;;;;51.75;42.00;;;;;2.20;44.32;100919.88;4778723;29;8899;-81
2024/01/22 10:59:15;;;;;;;;;44.00;40.50;;;;;2.22;43.60;100922.50;4806908;29;8887;-80
2024/01/22 11:01:45;;;;;;;;;48.50;43.50;;;;;2.40;44.15;100917.09;4792765;29;8902;-79
2024/01/22 11:04:17;;;;;;;;;45.25;39.00;;;;;2.34;42.72;100916.91;4786315;29;8871;-80
2024/01/22 11:06:54;;;;;;;;;45.75;38.00;;;;;2.41;43.06;100911.97;4800613;29;8898;-81
2024/01/22 11:09:24;;;;;;;;;44.00;39.25;;;;;2.35;42.89;100911.75;4817879;29;8888;-81
2024/01/22 11:11:55;;;;;;;;;41.00;36.50;;;;;2.48;43.12;100906.97;4788363;29;8970;-82
2024/01/22 11:14:26;;;;;;;;;45.00;38.75;;;;;2.53;42.88;100898.50;4808527;29;8917;-82
2024/01/22 11:16:55;;;;;;;;;40.50;37.50;;;;;2.73;42.54;100898.28;4814280;29;8868;-83
2024/01/22 11:19:24;;;;;;;;;42.25;39.00;;;;;2.83;42.90;100889.97;4844166;29;8893;-82
2024/01/22 11:21:54;;;;;;;;;30.40;30.20;;;;;2.90;42.14;100884.16;4854728;29;8893;-82
2024/01/22 11:24:26;;;;;;;;;48.00;40.75;;;;;2.89;41.96;100881.50;4834301;29;8881;-82
2024/01/22 11:27:06;;;;;;;;;38.80;38.00;;;;;2.95;42.07;100873.91;4823271;29;8902;-81
2024/01/22 11:29:37;;;;;;;;;35.40;30.80;;;;;3.05;41.77;100862.94;4839350;29;8885;-81